Time;durP1;ratioP1;P1;durP2;ratioP2;P2;SDS_P1;SDS_P2;PMS_P1;PMS_P2;Temp;Humidity;BMP_temperature;BMP_pressure;BME280_temperature;BME280_humidity;BME280_pressure;Samples;Min_cycle;Max_cycle;Signal;HPM_P1;HPM_P2
2024/01/29 00:02:09;;;;;;;;;;;;;;;0.76;100.00;102064.66;5039678;28;19928;-83
2024/01/29 00:04:42;;;;;;;;;;;;;;;0.68;100.00;102058.34;5040880;28;19936;-84
2024/01/29 00:07:16;;;;;;;;;;;;;;;0.68;100.00;102054.84;5040333;28;20313;-85
2024/01/29 00:09:49;;;;;;;;;;;;;;;0.67;100.00;102055.84;5029957;28;19924;-85
2024/01/29 00:12:22;;;;;;;;;;;;;;;0.66;100.00;102052.34;5038252;28;19924;-84
2024/01/29 00:14:55;;;;;;;;;;;;;;;0.64;100.00;102053.53;5017105;28;19929;-85
2024/01/29 00:17:23;;;;;;;;;;;;;;;0.67;100.00;102048.63;5037322;28;20277;-84
2024/01/29 00:19:57;;;;;;;;;;;;;;;0.58;100.00;102043.53;5023564;28;20568;-85
2024/01/29 00:22:26;;;;;;;;;;;;;;;0.55;100.00;102044.72;5038033;28;20570;-84
2024/01/29 00:24:59;;;;;;;;;;;;;;;0.59;100.00;102040.66;5038655;28;19929;-82
2024/01/29 00:27:32;;;;;;;;;;;;;;;0.52;100.00;102042.41;5036303;28;19940;-84
2024/01/29 00:30:06;;;;;;;;;;;;;;;0.47;100.00;102040.25;5030052;28;19955;-85
2024/01/29 00:32:40;;;;;;;;;;;;;;;0.58;100.00;102040.84;5038177;28;19948;-83
2024/01/29 00:35:08;;;;;;;;;;;;;;;0.53;100.00;102043.25;5059890;28;20399;-84
2024/01/29 00:37:43;;;;;;;;;;;;;;;0.52;100.00;102047.75;5027759;28;19925;-84
2024/01/29 00:40:11;;;;;;;;;;;;;;;0.50;100.00;102039.09;5038830;28;19929;-84
2024/01/29 00:42:39;;;;;;;;;;;;;;;0.46;100.00;102049.31;5054056;28;20249;-84
2024/01/29 00:45:12;;;;;;;;;;;;;;;0.45;100.00;102053.00;5039303;28;19948;-82
2024/01/29 00:47:45;;;;;;;;;;;;;;;0.53;100.00;102056.66;5036434;28;19925;-84
2024/01/29 00:50:19;;;;;;;;;;;;;;;0.45;100.00;102055.66;5040264;28;19929;-84
2024/01/29 00:52:53;;;;;;;;;;;;;;;0.48;100.00;102062.50;5038828;28;19928;-84
2024/01/29 00:55:26;;;;;;;;;;;;;;;0.45;100.00;102061.03;5041524;28;19928;-83
2024/01/29 00:57:59;;;;;;;;;;;;;;;0.44;100.00;102063.88;5039027;28;19939;-83
2024/01/29 01:00:27;;;;;;;;;;;;;;;0.48;100.00;102052.66;5038641;28;20435;-83
2024/01/29 01:03:00;;;;;;;;;;;;;;;0.49;100.00;102042.75;5041486;28;19932;-81
2024/01/29 01:05:33;;;;;;;;;;;;;;;0.48;100.00;102051.81;5033107;28;19924;-84
2024/01/29 01:08:03;;;;;;;;;;;;;;;0.45;100.00;102053.00;5038740;28;19921;-84
2024/01/29 01:10:31;;;;;;;;;;;;;;;0.54;100.00;102045.75;5058008;28;19928;-82
2024/01/29 01:13:00;;;;;;;;;;;;;;;0.49;100.00;102048.94;5025698;28;19931;-83
2024/01/29 01:15:29;;;;;;;;;;;;;;;0.48;100.00;102044.63;5033833;28;20297;-83
2024/01/29 01:18:03;;;;;;;;;;;;;;;0.47;100.00;102040.25;5042635;28;20620;-82
2024/01/29 01:20:36;;;;;;;;;;;;;;;0.47;100.00;102031.38;5035904;28;19928;-82
2024/01/29 01:23:10;;;;;;;;;;;;;;;0.53;100.00;102040.56;5053245;28;19932;-83
2024/01/29 01:25:38;;;;;;;;;;;;;;;0.57;100.00;102028.50;5030730;28;19928;-84
2024/01/29 01:28:08;;;;;;;;;;;;;;;0.59;100.00;102029.13;5042252;28;19920;-84
2024/01/29 01:30:41;;;;;;;;;;;;;;;0.59;100.00;102016.56;5041899;28;19925;-82
2024/01/29 01:33:14;;;;;;;;;;;;;;;0.61;100.00;102019.06;5035056;28;19925;-81
2024/01/29 01:35:47;;;;;;;;;;;;;;;0.60;100.00;102025.44;5018309;28;19921;-84
2024/01/29 01:38:16;;;;;;;;;;;;;;;0.63;100.00;102023.22;5060060;28;19932;-80
2024/01/29 01:40:49;;;;;;;;;;;;;;;0.69;100.00;102018.97;5038700;28;19929;-81
2024/01/29 01:43:23;;;;;;;;;;;;;;;0.71;100.00;102002.75;5035650;28;20313;-82
2024/01/29 01:46:06;;;;;;;;;;;;;;;0.70;100.00;102007.25;5034258;28;20285;-84
2024/01/29 01:48:39;;;;;;;;;;;;;;;0.75;100.00;102007.53;5040687;28;19929;-83
2024/01/29 01:51:07;;;;;;;;;;;;;;;0.75;100.00;102012.91;5052352;28;20290;-82
2024/01/29 01:53:42;;;;;;;;;;;;;;;0.71;100.00;102010.78;5026883;28;19924;-83
2024/01/29 01:56:10;;;;;;;;;;;;;;;0.74;100.00;102013.09;5037782;28;20549;-83
2024/01/29 01:58:43;;;;;;;;;;;;;;;0.76;100.00;102009.22;5040835;28;19924;-83
2024/01/29 02:01:13;;;;;;;;;;;;;;;0.83;100.00;102012.84;5052755;28;19920;-84
2024/01/29 02:03:43;;;;;;;;;;;;;;;0.91;100.00;102006.56;5026228;28;20027;-83
2024/01/29 02:06:11;;;;;;;;;;;;;;;0.93;100.00;102009.88;5033384;28;20373;-80
2024/01/29 02:08:45;;;;;;;;;;;;;;;0.97;100.00;102010.38;5041275;28;20584;-84
2024/01/29 02:11:14;;;;;;;;;;;;;;;0.96;100.00;102009.50;5041102;28;19928;-82
2024/01/29 02:13:47;;;;;;;;;;;;;;;0.98;100.00;102006.66;5048685;28;19929;-84
2024/01/29 02:16:20;;;;;;;;;;;;;;;1.00;100.00;102012.69;5039448;28;19928;-84
2024/01/29 02:18:47;;;;;;;;;;;;;;;1.00;100.00;102012.69;5055318;28;20273;-83
2024/01/29 02:21:16;;;;;;;;;;;;;;;0.96;100.00;102006.00;5041288;28;19921;-85
2024/01/29 02:23:45;;;;;;;;;;;;;;;1.02;100.00;102014.16;5042185;28;19936;-83
2024/01/29 02:26:13;;;;;;;;;;;;;;;1.02;100.00;102024.03;5043100;28;19947;-83
2024/01/29 02:28:46;;;;;;;;;;;;;;;1.04;100.00;102029.22;5040635;28;20384;-84
2024/01/29 02:31:19;;;;;;;;;;;;;;;1.04;100.00;102035.41;5028500;28;19924;-83
2024/01/29 02:33:47;;;;;;;;;;;;;;;1.00;100.00;102036.81;5028053;28;19932;-79
2024/01/29 02:36:16;;;;;;;;;;;;;;;1.03;100.00;102025.72;5047663;28;19932;-84
2024/01/29 02:38:50;;;;;;;;;;;;;;;0.99;100.00;102040.50;5035502;28;19929;-84
2024/01/29 02:41:18;;;;;;;;;;;;;;;1.11;100.00;102033.66;5043123;28;19932;-83
2024/01/29 02:43:51;;;;;;;;;;;;;;;1.10;100.00;102034.69;5044165;28;19921;-84
2024/01/29 02:46:19;;;;;;;;;;;;;;;1.15;100.00;102029.59;5035090;28;21522;-84
2024/01/29 02:48:47;;;;;;;;;;;;;;;1.11;100.00;102022.94;5034784;28;19924;-82
2024/01/29 02:51:15;;;;;;;;;;;;;;;1.19;100.00;102028.22;5037275;28;19924;-83
2024/01/29 02:53:48;;;;;;;;;;;;;;;1.10;100.00;102023.94;5044850;28;19924;-84
2024/01/29 02:56:22;;;;;;;;;;;;;;;1.06;100.00;102029.88;5044033;28;19935;-83
2024/01/29 02:58:50;;;;;;;;;;;;;;;1.05;100.00;102015.66;5039620;28;20460;-82
2024/01/29 03:01:23;;;;;;;;;;;;;;;0.99;100.00;102019.03;5043459;28;19921;-84
2024/01/29 03:03:56;;;;;;;;;;;;;;;0.89;100.00;102021.16;5020562;28;20397;-84
2024/01/29 03:06:29;;;;;;;;;;;;;;;0.85;100.00;102021.50;5037302;28;19925;-83
2024/01/29 03:09:02;;;;;;;;;;;;;;;0.87;100.00;102028.53;5038452;28;19936;-82
2024/01/29 03:11:31;;;;;;;;;;;;;;;0.87;100.00;102020.50;5038973;28;19932;-84
2024/01/29 03:14:04;;;;;;;;;;;;;;;0.83;100.00;102023.56;5023630;28;19921;-84
2024/01/29 03:16:37;;;;;;;;;;;;;;;0.77;100.00;102032.31;5035788;28;20301;-83
2024/01/29 03:19:05;;;;;;;;;;;;;;;0.75;100.00;102029.00;5029640;28;19925;-82
2024/01/29 03:21:33;;;;;;;;;;;;;;;0.64;100.00;102030.25;5038051;28;19929;-82
2024/01/29 03:24:06;;;;;;;;;;;;;;;0.64;100.00;102027.56;5040321;28;19921;-83
2024/01/29 03:26:36;;;;;;;;;;;;;;;0.59;100.00;102021.09;5036848;28;19921;-84
2024/01/29 03:29:04;;;;;;;;;;;;;;;0.64;100.00;102024.06;5025827;28;19939;-80
2024/01/29 03:31:31;;;;;;;;;;;;;;;0.61;100.00;102024.44;5060974;28;19928;-83
2024/01/29 03:33:59;;;;;;;;;;;;;;;0.65;100.00;102028.41;5038735;28;20405;-82
2024/01/29 03:36:32;;;;;;;;;;;;;;;0.64;100.00;102032.94;5041355;28;20004;-83
2024/01/29 03:39:05;;;;;;;;;;;;;;;0.65;100.00;102026.56;5031742;28;19928;-82
2024/01/29 03:41:39;;;;;;;;;;;;;;;0.57;100.00;102021.28;5033901;28;19924;-84
2024/01/29 03:44:14;;;;;;;;;;;;;;;0.52;100.00;102025.50;5044267;28;20316;-83
2024/01/29 03:46:47;;;;;;;;;;;;;;;0.48;100.00;102025.88;5039768;28;20385;-83
2024/01/29 03:49:15;;;;;;;;;;;;;;;0.43;100.00;102022.03;5057691;28;20277;-81
2024/01/29 03:51:43;;;;;;;;;;;;;;;0.42;100.00;102020.38;5037552;28;19921;-84
2024/01/29 03:54:11;;;;;;;;;;;;;;;0.39;100.00;102016.22;5024432;28;19936;-83
2024/01/29 03:56:40;;;;;;;;;;;;;;;0.38;100.00;102027.13;5042487;28;19925;-84
2024/01/29 03:59:11;;;;;;;;;;;;;;;0.45;100.00;102014.66;5046008;28;19929;-83
2024/01/29 04:01:43;;;;;;;;;;;;;;;0.41;100.00;102010.69;5039412;28;19932;-84
2024/01/29 04:04:11;;;;;;;;;;;;;;;0.43;100.00;102008.66;5025126;28;19929;-83
2024/01/29 04:06:40;;;;;;;;;;;;;;;0.36;100.00;102007.69;5043341;28;19928;-83
2024/01/29 04:09:19;;;;;;;;;;;;;;;0.35;100.00;102004.19;5031822;28;19931;-83
2024/01/29 04:11:50;;;;;;;;;;;;;;;0.44;100.00;102000.47;5048360;28;19956;-84
2024/01/29 04:14:19;;;;;;;;;;;;;;;0.45;100.00;102002.09;5026811;28;19920;-84
2024/01/29 04:16:51;;;;;;;;;;;;;;;0.46;100.00;102003.78;5038713;28;19940;-83
2024/01/29 04:19:24;;;;;;;;;;;;;;;0.49;100.00;101994.56;5039907;28;19928;-82
2024/01/29 04:21:52;;;;;;;;;;;;;;;0.41;100.00;101997.28;5042764;28;19929;-84
2024/01/29 04:24:25;;;;;;;;;;;;;;;0.35;100.00;101998.84;5023109;28;19932;-83
2024/01/29 04:26:59;;;;;;;;;;;;;;;0.32;100.00;101993.84;5034412;28;19921;-84
2024/01/29 04:29:33;;;;;;;;;;;;;;;0.25;100.00;101998.25;5040375;28;19932;-85
2024/01/29 04:32:06;;;;;;;;;;;;;;;0.17;100.00;101981.22;5043362;28;19924;-84
2024/01/29 04:34:39;;;;;;;;;;;;;;;0.11;100.00;101984.63;5054910;28;20370;-82
2024/01/29 04:37:06;;;;;;;;;;;;;;;0.11;100.00;101981.97;5043225;28;19936;-83
2024/01/29 04:39:40;;;;;;;;;;;;;;;0.16;100.00;101978.72;5057195;28;19933;-84
2024/01/29 04:42:09;;;;;;;;;;;;;;;0.14;100.00;101980.78;5032139;28;19975;-85
2024/01/29 04:44:42;;;;;;;;;;;;;;;0.08;100.00;101989.50;5042527;28;19925;-84
2024/01/29 04:47:11;;;;;;;;;;;;;;;0.09;100.00;101980.47;5034318;28;19967;-81
2024/01/29 04:49:44;;;;;;;;;;;;;;;0.09;100.00;101970.56;5037500;28;20668;-83
2024/01/29 04:52:12;;;;;;;;;;;;;;;0.10;100.00;101968.75;5038720;28;19928;-83
2024/01/29 04:54:45;;;;;;;;;;;;;;;0.06;100.00;101968.25;5036164;28;19929;-80
2024/01/29 04:57:14;;;;;;;;;;;;;;;0.06;100.00;101968.25;5033640;28;19927;-80
2024/01/29 04:59:47;;;;;;;;;;;;;;;0.03;100.00;101976.66;5034868;28;19925;-82
2024/01/29 05:02:20;;;;;;;;;;;;;;;0.03;100.00;101979.34;5021414;28;19948;-84
2024/01/29 05:04:48;;;;;;;;;;;;;;;-0.06;100.00;101977.72;5038040;28;19921;-83
2024/01/29 05:07:16;;;;;;;;;;;;;;;-0.01;100.00;101976.16;5047301;28;19929;-80
2024/01/29 05:09:49;;;;;;;;;;;;;;;0.01;100.00;101967.97;5039235;28;19925;-81
2024/01/29 05:12:23;;;;;;;;;;;;;;;-0.02;100.00;101973.66;5035138;28;19932;-84
2024/01/29 05:14:51;;;;;;;;;;;;;;;-0.03;100.00;101974.69;5041380;28;19928;-82
2024/01/29 05:17:20;;;;;;;;;;;;;;;0.01;100.00;101970.63;5045591;28;19936;-82
2024/01/29 05:19:52;;;;;;;;;;;;;;;-0.01;100.00;101964.63;5035126;28;19929;-83
2024/01/29 05:22:25;;;;;;;;;;;;;;;0.02;100.00;101969.63;5036976;28;20408;-83
2024/01/29 05:24:58;;;;;;;;;;;;;;;-0.04;100.00;101968.50;5037316;28;20341;-83
2024/01/29 05:27:32;;;;;;;;;;;;;;;-0.09;100.00;101970.88;5034298;28;19945;-83
2024/01/29 05:30:06;;;;;;;;;;;;;;;-0.11;100.00;101969.38;5028983;28;19932;-85
2024/01/29 05:32:39;;;;;;;;;;;;;;;-0.12;100.00;101973.91;5034936;28;19924;-84
2024/01/29 05:35:07;;;;;;;;;;;;;;;-0.21;100.00;101972.28;5041997;28;20381;-83
2024/01/29 05:37:35;;;;;;;;;;;;;;;-0.16;100.00;101977.13;5033956;28;19921;-83
2024/01/29 05:40:11;;;;;;;;;;;;;;;-0.16;100.00;101983.28;5042451;28;20844;-81
2024/01/29 05:42:40;;;;;;;;;;;;;;;-0.18;100.00;101986.16;5037200;28;19925;-84
2024/01/29 05:45:13;;;;;;;;;;;;;;;-0.20;100.00;101980.13;5037131;28;19928;-83
2024/01/29 05:47:46;;;;;;;;;;;;;;;-0.12;100.00;101984.59;5037424;28;19936;-83
2024/01/29 05:50:19;;;;;;;;;;;;;;;-0.27;100.00;101984.53;5027536;28;19925;-83
2024/01/29 05:52:47;;;;;;;;;;;;;;;-0.30;100.00;101984.03;5026069;28;19921;-84
2024/01/29 05:55:15;;;;;;;;;;;;;;;-0.32;100.00;101988.72;5045581;28;19927;-83
2024/01/29 05:57:45;;;;;;;;;;;;;;;-0.37;100.00;101983.91;5038895;28;19925;-80
2024/01/29 06:00:18;;;;;;;;;;;;;;;-0.33;100.00;101979.88;5027621;28;19939;-83
2024/01/29 06:02:49;;;;;;;;;;;;;;;-0.31;100.00;101975.19;5038436;28;19924;-82
2024/01/29 06:05:17;;;;;;;;;;;;;;;-0.28;100.00;101972.16;5053826;28;19931;-80
2024/01/29 06:07:51;;;;;;;;;;;;;;;-0.29;100.00;101970.50;5030259;28;19925;-84
2024/01/29 06:10:24;;;;;;;;;;;;;;;-0.27;100.00;101968.47;5046520;28;19925;-81
2024/01/29 06:12:58;;;;;;;;;;;;;;;-0.28;100.00;101972.16;5027428;28;19924;-83
2024/01/29 06:15:26;;;;;;;;;;;;;;;-0.28;100.00;101968.66;5042341;28;20383;-82
2024/01/29 06:17:54;;;;;;;;;;;;;;;-0.25;100.00;101965.63;5042111;28;20369;-83
2024/01/29 06:20:22;;;;;;;;;;;;;;;-0.30;100.00;101967.97;5035858;28;19924;-81
2024/01/29 06:22:55;;;;;;;;;;;;;;;-0.32;100.00;101961.97;5040176;28;20295;-82
2024/01/29 06:25:28;;;;;;;;;;;;;;;-0.27;100.00;101959.63;5042491;28;19925;-83
2024/01/29 06:28:03;;;;;;;;;;;;;;;-0.34;100.00;101959.47;5044676;28;19925;-84
2024/01/29 06:30:35;;;;;;;;;;;;;;;-0.34;100.00;101959.47;5030419;28;19932;-85
2024/01/29 06:33:08;;;;;;;;;;;;;;;-0.40;100.00;101949.47;5040311;28;19928;-84
2024/01/29 06:35:36;;;;;;;;;;;;;;;-0.40;100.00;101953.00;5041141;28;19921;-85
2024/01/29 06:38:09;;;;;;;;;;;;;;;-0.47;100.00;101951.19;5042082;28;19921;-85
2024/01/29 06:40:37;;;;;;;;;;;;;;;-0.50;100.00;101951.53;5028810;28;19924;-84
2024/01/29 06:43:12;;;;;;;;;;;;;;;-0.47;100.00;101949.38;5044930;28;19931;-85
2024/01/29 06:45:39;;;;;;;;;;;;;;;-0.50;100.00;101954.22;5055156;28;19925;-83
2024/01/29 06:48:12;;;;;;;;;;;;;;;-0.43;100.00;101952.50;5052846;28;19936;-84
2024/01/29 06:50:46;;;;;;;;;;;;;;;-0.49;100.00;101951.38;5035207;28;19929;-84
2024/01/29 06:53:14;;;;;;;;;;;;;;;-0.50;100.00;101957.72;5025295;28;19928;-83
2024/01/29 06:55:43;;;;;;;;;;;;;;;-0.52;100.00;101943.69;5022896;28;19935;-82
2024/01/29 06:58:13;;;;;;;;;;;;;;;-0.50;100.00;101951.53;5039991;28;19928;-84
2024/01/29 07:00:40;;;;;;;;;;;;;;;-0.53;100.00;101944.69;5033566;28;19932;-83
2024/01/29 07:03:08;;;;;;;;;;;;;;;-0.49;100.00;101945.19;5044652;28;19928;-84
2024/01/29 07:05:36;;;;;;;;;;;;;;;-0.50;100.00;101955.03;5038023;28;19929;-84
2024/01/29 07:08:05;;;;;;;;;;;;;;;-0.49;100.00;101953.22;5039191;28;19936;-84
2024/01/29 07:10:38;;;;;;;;;;;;;;;-0.49;100.00;101953.22;5023617;28;19928;-83
2024/01/29 07:13:12;;;;;;;;;;;;;;;-0.49;100.00;101966.59;5039553;28;19920;-84
2024/01/29 07:15:40;;;;;;;;;;;;;;;-0.42;100.00;101963.03;5040113;28;19931;-83
2024/01/29 07:18:14;;;;;;;;;;;;;;;-0.35;100.00;101957.81;5057949;28;19925;-79
2024/01/29 07:20:49;;;;;;;;;;;;;;;-0.40;100.00;101963.69;5026793;28;19925;-88
2024/01/29 07:23:24;;;;;;;;;;;;;;;-0.36;100.00;101954.31;5042776;28;19931;-81
2024/01/29 07:25:57;;;;;;;;;;;;;;;-0.31;100.00;101958.31;5038047;28;20149;-84
2024/01/29 07:28:27;;;;;;;;;;;;;;;-0.31;100.00;101967.16;5037485;28;19925;-83
2024/01/29 07:31:00;;;;;;;;;;;;;;;-0.28;100.00;101963.28;5042867;28;19925;-82
2024/01/29 07:33:28;;;;;;;;;;;;;;;-0.26;100.00;101963.94;5039668;28;20403;-85
2024/01/29 07:35:57;;;;;;;;;;;;;;;-0.13;100.00;101966.06;5037027;28;19966;-85
2024/01/29 07:38:25;;;;;;;;;;;;;;;-0.12;100.00;101968.56;5018691;28;19925;-81
2024/01/29 07:40:53;;;;;;;;;;;;;;;-0.13;100.00;101966.88;5033342;28;19929;-85
2024/01/29 07:43:21;;;;;;;;;;;;;;;-0.14;100.00;101978.59;5039175;28;19928;-86
2024/01/29 07:45:50;;;;;;;;;;;;;;;-0.19;100.00;101973.78;5037146;28;19935;-85
2024/01/29 07:48:23;;;;;;;;;;;;;;;-0.08;100.00;101977.06;5034291;28;20354;-84
2024/01/29 07:50:51;;;;;;;;;;;;;;;-0.05;100.00;101982.06;5041802;28;19921;-84
2024/01/29 07:53:19;;;;;;;;;;;;;;;-0.08;100.00;101985.91;5040845;28;19925;-83
2024/01/29 07:55:47;;;;;;;;;;;;;;;-0.05;100.00;101985.56;5002102;28;19936;-83
2024/01/29 07:58:21;;;;;;;;;;;;;;;-0.04;100.00;101992.59;5007660;28;19929;-81
2024/01/29 08:00:53;;;;;;;;;;;;;;;-0.03;100.00;101994.25;5014772;28;19936;-82
2024/01/29 08:03:26;;;;;;;;;;;;;;;0.04;100.00;101988.19;5006303;28;19929;-81
2024/01/29 08:05:59;;;;;;;;;;;;;;;0.10;100.00;101993.66;5020793;28;19929;-82
2024/01/29 08:08:28;;;;;;;;;;;;;;;0.14;100.00;101986.13;5018282;28;19936;-79
2024/01/29 08:10:58;;;;;;;;;;;;;;;0.15;100.00;101987.78;5015221;28;19929;-81
2024/01/29 08:13:29;;;;;;;;;;;;;;;0.25;100.00;101984.84;5020291;28;19925;-82
2024/01/29 08:16:04;;;;;;;;;;;;;;;0.31;100.00;101986.81;5021803;28;20356;-81
2024/01/29 08:18:32;;;;;;;;;;;;;;;0.37;100.00;101983.41;5016982;28;19939;-80
2024/01/29 08:21:00;;;;;;;;;;;;;;;0.42;100.00;101990.94;5027925;28;19935;-84
2024/01/29 08:23:30;;;;;;;;;;;;;;;0.45;100.00;101987.88;5017498;28;19928;-85
2024/01/29 08:26:03;;;;;;;;;;;;;;;0.57;100.00;101982.94;5017236;28;19935;-83
2024/01/29 08:28:31;;;;;;;;;;;;;;;0.64;100.00;101982.03;5025876;28;19929;-79
2024/01/29 08:31:00;;;;;;;;;;;;;;;0.68;100.00;101987.88;5001826;28;19925;-81
2024/01/29 08:33:34;;;;;;;;;;;;;;;0.71;100.00;101984.00;5023412;28;19999;-81
2024/01/29 08:36:02;;;;;;;;;;;;;;;0.79;100.00;101986.59;5039033;28;19924;-83
2024/01/29 08:38:35;;;;;;;;;;;;;;;0.83;100.00;101980.69;5010867;28;20205;-81
2024/01/29 08:41:09;;;;;;;;;;;;;;;0.81;100.00;101980.00;5028652;28;19988;-83
2024/01/29 08:43:42;;;;;;;;;;;;;;;0.84;100.00;101986.84;5022617;28;19929;-81
2024/01/29 08:46:15;;;;;;;;;;;;;;;0.88;100.00;101992.69;5020240;28;19928;-82
2024/01/29 08:48:45;;;;;;;;;;;;;;;0.80;100.00;101991.75;5004564;28;20309;-82
2024/01/29 08:51:18;;;;;;;;;;;;;;;0.81;100.00;101998.75;5015426;28;19983;-85
2024/01/29 08:53:51;;;;;;;;;;;;;;;0.78;100.00;101998.31;5024526;28;19936;-82
2024/01/29 08:56:24;;;;;;;;;;;;;;;0.75;100.00;101996.00;5005419;28;19940;-83
2024/01/29 08:58:58;;;;;;;;;;;;;;;0.73;100.00;101993.47;5014624;28;19928;-81
2024/01/29 09:01:26;;;;;;;;;;;;;;;0.71;100.00;102003.56;5020256;28;20531;-83
2024/01/29 09:03:55;;;;;;;;;;;;;;;0.69;100.00;102005.56;5020746;28;19939;-81
2024/01/29 09:06:28;;;;;;;;;;;;;;;0.75;100.00;101998.69;5006159;28;19929;-81
2024/01/29 09:09:01;;;;;;;;;;;;;;;0.76;100.00;102005.69;5016071;28;20387;-82
2024/01/29 09:11:34;;;;;;;;;;;;;;;0.79;100.00;102005.34;5003809;28;20309;-86
2024/01/29 09:14:02;;;;;;;;;;;;;;;0.80;100.00;101999.81;5002093;28;19940;-81
2024/01/29 09:16:30;;;;;;;;;;;;;;;0.79;100.00;101992.78;5024345;28;19936;-83
2024/01/29 09:19:00;;;;;;;;;;;;;;;0.91;100.00;101997.69;5020170;28;19933;-84
2024/01/29 09:21:30;;;;;;;;;;;;;;;0.98;100.00;101994.09;5008342;28;19970;-84
2024/01/29 09:23:58;;;;;;;;;;;;;;;1.02;100.00;101999.91;5021835;28;19929;-80
2024/01/29 09:26:31;;;;;;;;;;;;;;;1.10;100.00;101996.31;5016307;28;19932;-83
2024/01/29 09:29:04;;;;;;;;;;;;;;;1.09;100.00;101998.19;5018521;28;19936;-80
2024/01/29 09:31:32;;;;;;;;;;;;;;;1.18;100.00;101996.22;5021345;28;19928;-80
2024/01/29 09:34:03;;;;;;;;;;;;;;;1.30;100.00;101985.88;5021275;28;20431;-82
2024/01/29 09:36:30;;;;;;;;;;;;;;;1.37;100.00;101981.44;5026343;28;19929;-84
2024/01/29 09:38:58;;;;;;;;;;;;;;;1.46;100.00;101992.88;5023493;28;19929;-80
2024/01/29 09:41:26;;;;;;;;;;;;;;;1.64;100.00;102004.06;5020323;28;19929;-80
2024/01/29 09:44:00;;;;;;;;;;;;;;;1.76;100.00;101999.03;5017772;28;21266;-80
2024/01/29 09:46:34;;;;;;;;;;;;;;;1.85;100.00;102000.59;5004921;28;20373;-83
2024/01/29 09:49:03;;;;;;;;;;;;;;;1.88;100.00;102004.75;5017452;28;19936;-79
2024/01/29 09:51:36;;;;;;;;;;;;;;;1.92;100.00;101997.13;5020080;28;19929;-79
2024/01/29 09:54:05;;;;;;;;;;;;;;;2.00;100.00;101997.88;5017237;28;19929;-80
2024/01/29 09:56:33;;;;;;;;;;;;;;;2.06;100.00;101996.28;4998181;28;19929;-80
2024/01/29 09:59:01;;;;;;;;;;;;;;;2.21;100.00;101999.72;5019829;28;19936;-79
2024/01/29 10:01:34;;;;;;;;;;;;;;;2.33;100.00;102002.72;5024717;28;19925;-79
2024/01/29 10:04:08;;;;;;;;;;;;;;;2.33;100.00;102002.72;5025638;28;19999;-79
2024/01/29 10:06:41;;;;;;;;;;;;;;;2.38;100.00;102008.34;5023565;28;19929;-80
2024/01/29 10:09:14;;;;;;;;;;;;;;;2.52;100.00;102013.88;5002662;28;19928;-80
2024/01/29 10:11:43;;;;;;;;;;;;;;;2.63;100.00;102012.50;5020848;28;19954;-77
2024/01/29 10:14:16;;;;;;;;;;;;;;;2.71;100.00;102007.81;5029098;28;19936;-78
2024/01/29 10:16:50;;;;;;;;;;;;;;;2.71;100.00;102020.44;5015005;28;19936;-78
2024/01/29 10:19:25;;;;;;;;;;;;;;;2.74;100.00;102017.34;5002094;28;19941;-79
2024/01/29 10:21:58;;;;;;;;;;;;;;;2.85;100.00;102024.06;5002216;28;19935;-79
2024/01/29 10:24:26;;;;;;;;;;;;;;;2.83;100.00;102020.72;5026197;28;19928;-78
2024/01/29 10:26:54;;;;;;;;;;;;;;;2.85;100.00;102026.75;5002112;28;19928;-78
2024/01/29 10:29:22;;;;;;;;;;;;;;;2.95;100.00;102031.78;5018147;28;19929;-79
2024/01/29 10:31:58;;;;;;;;;;;;;;;3.03;100.00;102019.00;5016601;28;20472;-79
2024/01/29 10:34:28;;;;;;;;;;;;;;;3.08;100.00;102031.03;5026894;28;19924;-79
2024/01/29 10:37:01;;;;;;;;;;;;;;;3.17;100.00;102029.88;5018922;28;19936;-78
2024/01/29 10:39:38;;;;;;;;;;;;;;;3.16;100.00;102029.06;5020895;28;19929;-79
2024/01/29 10:42:08;;;;;;;;;;;;;;;3.20;100.00;102033.00;5040490;28;20485;-78
2024/01/29 10:44:41;;;;;;;;;;;;;;;3.33;100.00;102029.56;5018516;28;19935;-78
2024/01/29 10:47:15;;;;;;;;;;;;;;;3.44;100.00;102035.41;5017153;28;19950;-79
2024/01/29 10:49:52;;;;;;;;;;;;;;;3.38;100.00;102034.34;5002268;28;20455;-78
2024/01/29 10:52:23;;;;;;;;;;;;;;;3.33;100.00;102031.41;5021457;28;20369;-79
2024/01/29 10:54:56;;;;;;;;;;;;;;;3.43;100.00;102033.75;4990051;28;20297;-79
2024/01/29 10:57:25;;;;;;;;;;;;;;;3.45;100.00;102031.69;5044020;28;19936;-79
2024/01/29 10:59:54;;;;;;;;;;;;;;;3.47;100.00;102032.34;5024030;28;19929;-79
2024/01/29 11:02:29;;;;;;;;;;;;;;;3.58;100.00;102029.91;5020741;28;19936;-79
2024/01/29 11:04:59;;;;;;;;;;;;;;;3.75;100.00;102032.25;5018039;28;19936;-78
2024/01/29 11:07:29;;;;;;;;;;;;;;;3.95;100.00;102029.66;5017780;28;19939;-78
2024/01/29 11:10:07;;;;;;;;;;;;;;;4.00;100.00;102020.94;5020812;28;19935;-79
2024/01/29 11:12:40;;;;;;;;;;;;;;;4.04;100.00;102023.00;5013169;28;19935;-78
2024/01/29 11:15:10;;;;;;;;;;;;;;;4.07;100.00;102014.56;5010999;28;19932;-78
2024/01/29 11:17:43;;;;;;;;;;;;;;;4.16;100.00;102014.38;5014767;28;20009;-79
2024/01/29 11:20:18;;;;;;;;;;;;;;;4.29;100.00;102010.84;5012881;28;19929;-79
2024/01/29 11:22:52;;;;;;;;;;;;;;;4.31;100.00;102014.16;5018770;28;19944;-80
2024/01/29 11:25:20;;;;;;;;;;;;;;;4.39;100.00;102005.88;5023440;28;20300;-79
2024/01/29 11:27:48;;;;;;;;;;;;;;;4.49;100.00;102005.47;5017046;28;19928;-79
2024/01/29 11:30:23;;;;;;;;;;;;;;;4.42;100.00;102011.69;5021659;28;19929;-78
2024/01/29 11:32:56;;;;;;;;;;;;;;;4.40;100.00;102008.38;5023416;28;20985;-77
2024/01/29 11:35:31;;;;;;;;;;;;;;;4.50;100.00;102007.13;5017497;28;19929;-78
2024/01/29 11:38:07;;;;;;;;;;;;;;;4.70;100.00;102007.16;5016835;28;19935;-78
2024/01/29 11:40:41;;;;;;;;;;;;;;;4.68;100.00;102010.06;5003620;28;19929;-78
2024/01/29 11:43:15;;;;;;;;;;;;;;;4.77;100.00;101995.31;4991842;28;19929;-78
2024/01/29 11:45:48;;;;;;;;;;;;;;;4.79;100.00;102010.47;5017532;28;19939;-79
2024/01/29 11:48:17;;;;;;;;;;;;;;;4.86;100.00;102001.34;5025350;28;19935;-79
2024/01/29 11:50:52;;;;;;;;;;;;;;;4.99;100.00;101989.69;5004537;28;19928;-78
2024/01/29 11:53:26;;;;;;;;;;;;;;;5.10;100.00;101983.66;5019712;28;19943;-78
2024/01/29 11:55:59;;;;;;;;;;;;;;;5.09;100.00;101983.88;4992438;28;21036;-78
2024/01/29 11:58:32;;;;;;;;;;;;;;;5.12;100.00;101988.81;5038555;28;19932;-78
2024/01/29 12:01:00;;;;;;;;;;;;;;;5.11;100.00;101987.19;5009908;28;19929;-77
2024/01/29 12:03:34;;;;;;;;;;;;;;;5.21;100.00;101984.88;5023251;28;19924;-78
2024/01/29 12:06:04;;;;;;;;;;;;;;;5.52;100.00;101977.09;5021093;28;19932;-78
2024/01/29 12:08:32;;;;;;;;;;;;;;;5.56;100.00;101991.81;5007323;28;20638;-78
2024/01/29 12:11:05;;;;;;;;;;;;;;;5.67;100.00;101993.84;5000741;28;19936;-78
2024/01/29 12:13:38;;;;;;;;;;;;;;;5.64;100.00;101999.69;5019118;28;19928;-77
2024/01/29 12:16:11;;;;;;;;;;;;;;;5.69;100.00;102005.28;5018387;28;20623;-78
2024/01/29 12:18:44;;;;;;;;;;;;;;;5.72;100.00;101996.75;5016800;28;19928;-78
2024/01/29 12:21:14;;;;;;;;;;;;;;;5.75;100.00;101998.19;5017918;28;19928;-78
2024/01/29 12:23:47;;;;;;;;;;;;;;;5.79;100.00;101997.53;5013373;28;19936;-78
2024/01/29 12:26:27;;;;;;;;;;;;;;;5.74;100.00;101993.81;5020754;28;19936;-79
2024/01/29 12:29:00;;;;;;;;;;;;;;;5.61;100.00;101992.84;5010905;28;19928;-78
2024/01/29 12:31:37;;;;;;;;;;;;;;;5.48;100.00;101998.28;5021524;28;20545;-78
2024/01/29 12:34:06;;;;;;;;;;;;;;;5.57;100.00;101994.31;5015873;28;20436;-78
2024/01/29 12:36:41;;;;;;;;;;;;;;;5.70;100.00;101982.59;5012834;28;19928;-79
2024/01/29 12:39:11;;;;;;;;;;;;;;;5.99;100.00;101979.59;5014544;28;19929;-78
2024/01/29 12:41:44;;;;;;;;;;;;;;;5.96;100.00;101989.75;5017040;28;19933;-78
2024/01/29 12:44:17;;;;;;;;;;;;;;;6.01;100.00;101989.16;5015905;28;19936;-80
2024/01/29 12:46:54;;;;;;;;;;;;;;;5.94;100.00;101989.16;5023926;28;19925;-78
2024/01/29 12:49:27;;;;;;;;;;;;;;;6.03;100.00;101988.94;5024276;28;19936;-79
2024/01/29 12:51:56;;;;;;;;;;;;;;;5.97;100.00;101996.00;5019868;28;19928;-79
2024/01/29 12:54:29;;;;;;;;;;;;;;;6.08;100.00;101989.13;5012932;28;19928;-78
2024/01/29 12:57:02;;;;;;;;;;;;;;;6.25;100.00;101987.53;5006516;28;19935;-78